sensor_id;sensor_type;location;lat;lon;timestamp;pressure;altitude;pressure_sealevel;temperature;humidity
22753;BME280;11543;43.144;24.684;2023-02-19T17:08:38;98742.59;;;16.99;45.37
22753;BME280;11543;43.144;24.684;2023-02-19T17:11:10;98735.00;;;16.88;45.52
22753;BME280;11543;43.144;24.684;2023-02-19T17:13:41;98728.25;;;16.77;45.51
22753;BME280;11543;43.144;24.684;2023-02-19T17:16:08;98751.50;;;16.93;45.42
22753;BME280;11543;43.144;24.684;2023-02-19T17:18:36;98755.22;;;16.85;45.49
22753;BME280;11543;43.144;24.684;2023-02-19T17:21:12;98755.81;;;16.81;45.44
22753;BME280;11543;43.144;24.684;2023-02-19T17:23:39;98775.91;;;16.93;45.38
22753;BME280;11543;43.144;24.684;2023-02-19T17:26:04;98770.88;;;16.90;45.49
22753;BME280;11543;43.144;24.684;2023-02-19T17:28:30;98777.19;;;16.97;45.42
22753;BME280;11543;43.144;24.684;2023-02-19T17:30:56;98761.66;;;16.84;45.48
22753;BME280;11543;43.144;24.684;2023-02-19T17:33:21;98756.84;;;16.80;45.46
22753;BME280;11543;43.144;24.684;2023-02-19T17:35:47;98748.25;;;16.76;45.51
22753;BME280;11543;43.144;24.684;2023-02-19T17:38:17;98757.09;;;16.85;45.51
22753;BME280;11543;43.144;24.684;2023-02-19T17:40:42;98768.16;;;16.90;45.57
22753;BME280;11543;43.144;24.684;2023-02-19T17:43:09;98759.16;;;16.83;45.67
22753;BME280;11543;43.144;24.684;2023-02-19T17:45:34;98772.56;;;16.91;45.58
22753;BME280;11543;43.144;24.684;2023-02-19T17:48:00;98759.78;;;16.85;45.55
22753;BME280;11543;43.144;24.684;2023-02-19T17:50:29;98784.09;;;17.00;45.78
22753;BME280;11543;43.144;24.684;2023-02-19T17:52:54;98792.66;;;17.03;45.66
22753;BME280;11543;43.144;24.684;2023-02-19T17:55:20;98771.28;;;16.87;45.79
22753;BME280;11543;43.144;24.684;2023-02-19T17:57:46;98789.69;;;16.98;45.71
22753;BME280;11543;43.144;24.684;2023-02-19T18:00:14;98798.47;;;17.00;45.79
22753;BME280;11543;43.144;24.684;2023-02-19T18:02:41;98795.97;;;16.99;45.83
22753;BME280;11543;43.144;24.684;2023-02-19T18:05:08;98802.13;;;16.86;45.81
22753;BME280;11543;43.144;24.684;2023-02-19T18:07:36;98803.03;;;16.72;45.62
22753;BME280;11543;43.144;24.684;2023-02-19T18:10:04;98818.94;;;16.60;46.16
22753;BME280;11543;43.144;24.684;2023-02-19T18:12:29;98819.09;;;16.37;46.71
22753;BME280;11543;43.144;24.684;2023-02-19T18:14:55;98822.47;;;16.39;46.94
22753;BME280;11543;43.144;24.684;2023-02-19T18:17:24;98830.59;;;16.39;46.92
22753;BME280;11543;43.144;24.684;2023-02-19T18:19:51;98830.59;;;16.39;47.03
22753;BME280;11543;43.144;24.684;2023-02-19T18:22:18;98830.31;;;16.34;47.02
22753;BME280;11543;43.144;24.684;2023-02-19T18:24:47;98834.44;;;16.30;47.09
22753;BME280;11543;43.144;24.684;2023-02-19T18:27:13;98831.88;;;16.22;47.36
22753;BME280;11543;43.144;24.684;2023-02-19T18:29:39;98836.91;;;16.25;47.49
22753;BME280;11543;43.144;24.684;2023-02-19T18:32:06;98832.63;;;16.16;47.78
22753;BME280;11543;43.144;24.684;2023-02-19T18:34:31;98838.72;;;16.03;48.30
22753;BME280;11543;43.144;24.684;2023-02-19T18:36:57;98833.63;;;15.93;48.50
22753;BME280;11543;43.144;24.684;2023-02-19T18:39:22;98846.13;;;15.95;48.87
22753;BME280;11543;43.144;24.684;2023-02-19T18:41:49;98842.38;;;15.96;48.88
22753;BME280;11543;43.144;24.684;2023-02-19T18:44:19;98853.38;;;16.09;48.83
22753;BME280;11543;43.144;24.684;2023-02-19T18:46:45;98855.31;;;16.15;48.77
22753;BME280;11543;43.144;24.684;2023-02-19T18:49:11;98854.75;;;16.19;48.74
22753;BME280;11543;43.144;24.684;2023-02-19T18:51:36;98855.97;;;16.17;48.80
22753;BME280;11543;43.144;24.684;2023-02-19T18:54:02;98866.78;;;16.17;48.69
22753;BME280;11543;43.144;24.684;2023-02-19T18:56:28;98866.03;;;16.23;48.83
22753;BME280;11543;43.144;24.684;2023-02-19T18:58:55;98857.63;;;16.18;48.74
22753;BME280;11543;43.144;24.684;2023-02-19T19:01:20;98876.19;;;16.21;48.71
22753;BME280;11543;43.144;24.684;2023-02-19T19:03:46;98879.19;;;16.26;48.63
22753;BME280;11543;43.144;24.684;2023-02-19T19:06:11;98882.28;;;16.23;48.66
22753;BME280;11543;43.144;24.684;2023-02-19T19:08:37;98874.38;;;15.92;49.21
22753;BME280;11543;43.144;24.684;2023-02-19T19:11:04;98881.03;;;15.89;49.26
22753;BME280;11543;43.144;24.684;2023-02-19T19:13:30;98884.47;;;15.83;49.44
22753;BME280;11543;43.144;24.684;2023-02-19T19:15:55;98893.44;;;15.84;49.47
22753;BME280;11543;43.144;24.684;2023-02-19T19:18:21;98903.03;;;15.86;49.61
22753;BME280;11543;43.144;24.684;2023-02-19T19:20:46;98900.16;;;15.88;49.58
22753;BME280;11543;43.144;24.684;2023-02-19T19:23:12;98903.78;;;15.80;49.60
22753;BME280;11543;43.144;24.684;2023-02-19T19:25:38;98905.38;;;15.75;49.93
22753;BME280;11543;43.144;24.684;2023-02-19T19:28:06;98902.97;;;15.57;49.58
22753;BME280;11543;43.144;24.684;2023-02-19T19:30:31;98909.25;;;15.57;49.81
22753;BME280;11543;43.144;24.684;2023-02-19T19:32:57;98907.72;;;15.40;49.91
22753;BME280;11543;43.144;24.684;2023-02-19T19:35:24;98913.22;;;15.47;49.94
22753;BME280;11543;43.144;24.684;2023-02-19T19:37:52;98900.91;;;15.29;49.88
22753;BME280;11543;43.144;24.684;2023-02-19T19:40:18;98898.84;;;15.32;49.77
22753;BME280;11543;43.144;24.684;2023-02-19T19:42:43;98902.78;;;15.44;49.63
22753;BME280;11543;43.144;24.684;2023-02-19T19:45:09;98895.50;;;15.29;49.65
22753;BME280;11543;43.144;24.684;2023-02-19T19:47:35;98902.66;;;15.22;49.58
22753;BME280;11543;43.144;24.684;2023-02-19T19:50:03;98910.75;;;15.22;49.35
22753;BME280;11543;43.144;24.684;2023-02-19T19:52:29;98922.41;;;15.23;49.90
22753;BME280;11543;43.144;24.684;2023-02-19T19:54:54;98911.50;;;15.16;49.87
22753;BME280;11543;43.144;24.684;2023-02-19T19:57:20;98923.69;;;15.12;50.00
22753;BME280;11543;43.144;24.684;2023-02-19T19:59:49;98923.75;;;15.04;49.25
22753;BME280;11543;43.144;24.684;2023-02-19T20:02:15;98921.34;;;15.09;49.17
22753;BME280;11543;43.144;24.684;2023-02-19T20:04:41;98938.88;;;15.13;48.88
22753;BME280;11543;43.144;24.684;2023-02-19T20:07:07;98933.84;;;15.10;48.78
22753;BME280;11543;43.144;24.684;2023-02-19T20:09:33;98924.22;;;15.08;49.26
22753;BME280;11543;43.144;24.684;2023-02-19T20:12:07;98920.50;;;15.09;49.05
22753;BME280;11543;43.144;24.684;2023-02-19T20:14:33;98925.16;;;15.00;48.79
22753;BME280;11543;43.144;24.684;2023-02-19T20:16:58;98924.13;;;15.01;48.94
22753;BME280;11543;43.144;24.684;2023-02-19T20:19:24;98947.06;;;15.05;48.38
22753;BME280;11543;43.144;24.684;2023-02-19T20:21:51;98949.94;;;15.04;48.91
22753;BME280;11543;43.144;24.684;2023-02-19T20:24:22;98950.41;;;15.07;48.64
22753;BME280;11543;43.144;24.684;2023-02-19T20:26:49;98937.94;;;15.06;48.52
22753;BME280;11543;43.144;24.684;2023-02-19T20:29:15;98947.41;;;15.02;48.67
22753;BME280;11543;43.144;24.684;2023-02-19T20:31:47;98929.59;;;14.93;48.69
22753;BME280;11543;43.144;24.684;2023-02-19T20:34:13;98945.38;;;15.04;48.80
22753;BME280;11543;43.144;24.684;2023-02-19T20:36:56;98948.50;;;14.93;49.16
22753;BME280;11543;43.144;24.684;2023-02-19T20:39:22;98924.25;;;14.85;48.93
22753;BME280;11543;43.144;24.684;2023-02-19T20:41:53;98956.78;;;14.91;48.82
22753;BME280;11543;43.144;24.684;2023-02-19T20:44:18;98945.38;;;14.81;48.93
22753;BME280;11543;43.144;24.684;2023-02-19T20:46:47;98954.25;;;14.90;49.42
22753;BME280;11543;43.144;24.684;2023-02-19T20:49:17;98956.00;;;14.83;49.24
22753;BME280;11543;43.144;24.684;2023-02-19T20:51:47;98951.81;;;14.72;49.22
22753;BME280;11543;43.144;24.684;2023-02-19T20:54:21;98945.94;;;14.69;49.27
22753;BME280;11543;43.144;24.684;2023-02-19T20:56:50;98959.75;;;14.74;49.36
22753;BME280;11543;43.144;24.684;2023-02-19T20:59:17;98949.31;;;14.71;49.32
22753;BME280;11543;43.144;24.684;2023-02-19T21:01:43;98951.69;;;14.65;48.78
22753;BME280;11543;43.144;24.684;2023-02-19T21:04:09;98956.75;;;14.69;48.91
22753;BME280;11543;43.144;24.684;2023-02-19T21:06:34;98973.44;;;14.72;48.99
22753;BME280;11543;43.144;24.684;2023-02-19T21:09:02;98963.22;;;14.59;48.88
22753;BME280;11543;43.144;24.684;2023-02-19T21:11:28;98966.56;;;14.61;48.88
22753;BME280;11543;43.144;24.684;2023-02-19T21:13:53;98976.00;;;14.65;48.85
22753;BME280;11543;43.144;24.684;2023-02-19T21:16:26;98967.78;;;14.59;48.99
22753;BME280;11543;43.144;24.684;2023-02-19T21:18:52;98971.91;;;14.47;49.02
22753;BME280;11543;43.144;24.684;2023-02-19T21:21:19;98980.34;;;14.44;49.04
22753;BME280;11543;43.144;24.684;2023-02-19T21:23:46;98981.50;;;14.41;49.23
22753;BME280;11543;43.144;24.684;2023-02-19T21:26:12;98986.28;;;14.31;49.30
22753;BME280;11543;43.144;24.684;2023-02-19T21:28:37;98986.97;;;14.25;49.49
22753;BME280;11543;43.144;24.684;2023-02-19T21:31:04;98991.69;;;14.31;49.59
22753;BME280;11543;43.144;24.684;2023-02-19T21:33:31;99000.13;;;14.28;49.41
22753;BME280;11543;43.144;24.684;2023-02-19T21:35:57;98996.44;;;14.21;49.54
22753;BME280;11543;43.144;24.684;2023-02-19T21:38:22;98992.41;;;14.17;49.56
22753;BME280;11543;43.144;24.684;2023-02-19T21:40:48;98994.63;;;14.13;49.85
22753;BME280;11543;43.144;24.684;2023-02-19T21:43:14;99003.22;;;14.09;49.87
22753;BME280;11543;43.144;24.684;2023-02-19T21:45:40;99005.59;;;14.03;49.91
22753;BME280;11543;43.144;24.684;2023-02-19T21:48:07;99016.75;;;14.00;50.51
22753;BME280;11543;43.144;24.684;2023-02-19T21:50:33;99019.59;;;14.07;50.15
22753;BME280;11543;43.144;24.684;2023-02-19T21:52:59;99026.50;;;14.10;50.18
22753;BME280;11543;43.144;24.684;2023-02-19T21:55:25;99008.97;;;14.06;50.17
22753;BME280;11543;43.144;24.684;2023-02-19T21:57:52;99017.75;;;14.08;50.22
22753;BME280;11543;43.144;24.684;2023-02-19T22:00:18;99008.66;;;14.00;50.29
22753;BME280;11543;43.144;24.684;2023-02-19T22:02:44;99018.44;;;14.01;50.38
22753;BME280;11543;43.144;24.684;2023-02-19T22:05:09;99021.09;;;14.10;50.13
22753;BME280;11543;43.144;24.684;2023-02-19T22:07:35;99013.03;;;14.01;49.93
22753;BME280;11543;43.144;24.684;2023-02-19T22:10:01;99014.03;;;14.09;49.82
22753;BME280;11543;43.144;24.684;2023-02-19T22:12:29;99006.31;;;13.97;50.03
22753;BME280;11543;43.144;24.684;2023-02-19T22:14:54;99012.03;;;13.86;50.11
22753;BME280;11543;43.144;24.684;2023-02-19T22:17:22;99012.38;;;13.91;50.16
22753;BME280;11543;43.144;24.684;2023-02-19T22:19:47;99004.97;;;13.69;50.31
22753;BME280;11543;43.144;24.684;2023-02-19T22:22:13;99013.59;;;13.56;50.44
22753;BME280;11543;43.144;24.684;2023-02-19T22:24:38;99027.91;;;13.65;50.62
22753;BME280;11543;43.144;24.684;2023-02-19T22:27:04;99029.59;;;13.66;50.62
22753;BME280;11543;43.144;24.684;2023-02-19T22:29:29;99019.50;;;13.60;50.69
22753;BME280;11543;43.144;24.684;2023-02-19T22:31:55;99021.50;;;13.66;50.78
22753;BME280;11543;43.144;24.684;2023-02-19T22:34:21;99031.44;;;13.57;50.65
22753;BME280;11543;43.144;24.684;2023-02-19T22:36:47;99018.47;;;13.53;50.64
22753;BME280;11543;43.144;24.684;2023-02-19T22:39:21;99027.59;;;13.52;50.83
22753;BME280;11543;43.144;24.684;2023-02-19T22:41:47;99019.16;;;13.47;50.86
22753;BME280;11543;43.144;24.684;2023-02-19T22:44:12;99027.25;;;13.55;50.73
22753;BME280;11543;43.144;24.684;2023-02-19T22:46:38;99009.88;;;13.57;50.94
22753;BME280;11543;43.144;24.684;2023-02-19T22:49:05;99028.59;;;13.59;50.89
22753;BME280;11543;43.144;24.684;2023-02-19T22:51:31;99015.97;;;13.51;50.91
22753;BME280;11543;43.144;24.684;2023-02-19T22:53:58;99026.56;;;13.45;51.20
22753;BME280;11543;43.144;24.684;2023-02-19T22:56:25;99021.53;;;13.33;51.34
22753;BME280;11543;43.144;24.684;2023-02-19T22:58:52;99023.38;;;13.33;51.35
22753;BME280;11543;43.144;24.684;2023-02-19T23:01:19;99027.59;;;13.27;51.42
22753;BME280;11543;43.144;24.684;2023-02-19T23:06:10;99035.00;;;13.33;51.70
22753;BME280;11543;43.144;24.684;2023-02-19T23:08:35;99019.16;;;13.22;51.73
22753;BME280;11543;43.144;24.684;2023-02-19T23:11:01;99027.59;;;13.27;51.80
22753;BME280;11543;43.144;24.684;2023-02-19T23:13:27;99028.94;;;13.23;51.91
22753;BME280;11543;43.144;24.684;2023-02-19T23:15:52;99027.03;;;13.16;52.28
22753;BME280;11543;43.144;24.684;2023-02-19T23:18:17;99033.22;;;13.00;52.47
22753;BME280;11543;43.144;24.684;2023-02-19T23:20:43;99037.63;;;13.09;52.70
22753;BME280;11543;43.144;24.684;2023-02-19T23:23:09;99014.06;;;13.11;52.54
22753;BME280;11543;43.144;24.684;2023-02-19T23:25:35;99020.13;;;13.05;52.80
22753;BME280;11543;43.144;24.684;2023-02-19T23:28:02;99018.41;;;12.96;52.92
22753;BME280;11543;43.144;24.684;2023-02-19T23:30:27;99010.31;;;12.96;53.08
22753;BME280;11543;43.144;24.684;2023-02-19T23:32:53;99006.63;;;12.97;53.07
22753;BME280;11543;43.144;24.684;2023-02-19T23:35:18;99009.66;;;12.94;53.00
22753;BME280;11543;43.144;24.684;2023-02-19T23:37:44;99002.56;;;12.85;53.42
22753;BME280;11543;43.144;24.684;2023-02-19T23:40:10;98998.84;;;12.77;53.65
22753;BME280;11543;43.144;24.684;2023-02-19T23:42:35;98993.13;;;12.72;53.99
22753;BME280;11543;43.144;24.684;2023-02-19T23:45:01;99001.19;;;12.72;54.21
22753;BME280;11543;43.144;24.684;2023-02-19T23:47:27;98998.50;;;12.72;54.37
22753;BME280;11543;43.144;24.684;2023-02-19T23:49:53;99004.22;;;12.69;54.69
22753;BME280;11543;43.144;24.684;2023-02-19T23:52:18;99010.25;;;12.63;54.76
22753;BME280;11543;43.144;24.684;2023-02-19T23:54:43;99008.25;;;12.65;55.03
22753;BME280;11543;43.144;24.684;2023-02-19T23:57:09;99013.31;;;12.68;54.96
22753;BME280;11543;43.144;24.684;2023-02-19T23:59:34;99008.56;;;12.62;55.09
